createdAt,value
2019-01-15T00:01:59.788Z,9.70
2019-01-15T00:04:29.957Z,9.67
2019-01-15T00:07:00.151Z,9.40
2019-01-15T00:09:30.320Z,9.50
2019-01-15T00:12:07.611Z,10.77
2019-01-15T00:14:32.420Z,8.67
2019-01-15T00:17:02.634Z,9.63
2019-01-15T00:19:32.892Z,11.47
2019-01-15T00:22:03.051Z,11.23
2019-01-15T00:24:33.203Z,10.73
2019-01-15T00:27:03.399Z,11.13
2019-01-15T00:29:33.573Z,10.07
2019-01-15T00:32:03.735Z,11.27
2019-01-15T00:34:33.956Z,11.50
2019-01-15T00:37:04.211Z,10.90
2019-01-15T00:39:34.407Z,11.63
2019-01-15T00:42:04.651Z,10.87
2019-01-15T00:44:34.826Z,10.83
2019-01-15T00:47:05.008Z,10.27
2019-01-15T00:49:35.159Z,10.53
2019-01-15T00:52:05.447Z,10.30
2019-01-15T00:54:35.723Z,11.40
2019-01-15T00:57:05.895Z,10.90
2019-01-15T00:59:36.091Z,10.90
2019-01-15T01:02:07.371Z,10.57
2019-01-15T01:04:37.554Z,10.33
2019-01-15T01:07:08.823Z,10.13
2019-01-15T01:09:39.019Z,10.37
2019-01-15T01:12:09.195Z,10.43
2019-01-15T01:14:39.343Z,10.27
2019-01-15T01:17:09.551Z,10.73
2019-01-15T01:19:39.705Z,10.23
2019-01-15T01:22:09.867Z,10.80
2019-01-15T01:24:40.087Z,11.63
2019-01-15T01:27:10.259Z,10.87
2019-01-15T01:29:40.468Z,11.43
2019-01-15T01:32:10.622Z,11.67
2019-01-15T01:34:40.815Z,11.87
2019-01-15T01:37:11.013Z,11.30
2019-01-15T01:39:41.176Z,10.90
2019-01-15T01:42:11.350Z,12.93
2019-01-15T01:44:41.522Z,13.13
2019-01-15T01:47:11.690Z,12.63
2019-01-15T01:49:41.843Z,14.27
2019-01-15T01:52:12.027Z,13.60
2019-01-15T01:54:42.318Z,15.33
2019-01-15T01:57:12.465Z,14.53
2019-01-15T01:59:42.749Z,14.77
2019-01-15T02:02:12.988Z,14.60
2019-01-15T02:04:44.243Z,15.70
2019-01-15T02:07:15.999Z,16.80
2019-01-15T02:09:46.205Z,17.57
2019-01-15T02:12:16.368Z,17.10
2019-01-15T02:14:46.515Z,17.67
2019-01-15T02:17:16.728Z,18.40
2019-01-15T02:19:46.916Z,19.63
2019-01-15T02:22:17.084Z,19.30
2019-01-15T02:24:47.231Z,19.47
2019-01-15T02:27:17.764Z,17.23
2019-01-15T02:29:47.926Z,17.80
2019-01-15T02:32:18.080Z,19.03
2019-01-15T02:34:48.271Z,19.20
2019-01-15T02:37:18.431Z,17.27
2019-01-15T02:39:48.611Z,18.30
2019-01-15T02:42:18.765Z,17.57
2019-01-15T02:44:49.057Z,17.90
2019-01-15T02:47:19.204Z,16.80
2019-01-15T02:49:49.377Z,16.10
2019-01-15T02:52:19.550Z,16.33
2019-01-15T02:54:49.771Z,17.50
2019-01-15T02:57:19.941Z,17.37
2019-01-15T02:59:54.731Z,16.90
2019-01-15T03:02:24.971Z,17.40
2019-01-15T03:04:55.136Z,16.40
2019-01-15T03:07:25.300Z,19.13
2019-01-15T03:09:55.451Z,17.10
2019-01-15T03:12:25.622Z,18.20
2019-01-15T03:14:55.772Z,18.23
2019-01-15T03:17:25.960Z,17.17
2019-01-15T03:19:56.141Z,16.30
2019-01-15T03:22:26.331Z,14.80
2019-01-15T03:24:56.516Z,14.47
2019-01-15T03:27:26.700Z,13.63
2019-01-15T03:29:56.863Z,13.80
2019-01-15T03:32:27.052Z,13.13
2019-01-15T03:34:57.240Z,13.73
2019-01-15T03:37:27.386Z,13.07
2019-01-15T03:39:57.544Z,12.30
2019-01-15T03:42:27.708Z,13.30
2019-01-15T03:44:58.003Z,12.43
2019-01-15T03:47:28.156Z,12.47
2019-01-15T03:49:58.326Z,12.00
2019-01-15T03:52:28.494Z,12.53
2019-01-15T03:54:58.646Z,10.93
2019-01-15T03:57:28.826Z,11.20
2019-01-15T03:59:58.972Z,10.83
2019-01-15T04:02:29.302Z,11.30
2019-01-15T04:04:59.784Z,11.20
2019-01-15T04:07:30.169Z,12.33
2019-01-15T04:10:00.423Z,11.87
2019-01-15T04:12:30.629Z,12.70
2019-01-15T04:15:02.285Z,13.13
2019-01-15T04:17:32.437Z,14.50
2019-01-15T04:20:02.601Z,15.37
2019-01-15T04:22:32.759Z,16.80
2019-01-15T04:25:03.007Z,12.03
2019-01-15T04:27:33.203Z,15.70
2019-01-15T04:30:04.608Z,15.47
2019-01-15T04:32:34.941Z,14.53
2019-01-15T04:35:06.628Z,16.50
2019-01-15T04:37:36.771Z,16.93
2019-01-15T04:40:08.527Z,16.67
2019-01-15T04:42:38.702Z,17.60
2019-01-15T04:45:10.875Z,17.13
2019-01-15T04:47:41.020Z,17.83
2019-01-15T04:50:11.403Z,19.07
2019-01-15T04:52:43.049Z,18.70
2019-01-15T04:55:13.995Z,19.93
2019-01-15T04:57:44.130Z,18.33
2019-01-15T05:00:16.659Z,18.03
2019-01-15T05:02:48.195Z,19.77
2019-01-15T05:05:19.534Z,20.30
2019-01-15T05:07:49.816Z,18.53
2019-01-15T05:10:21.163Z,20.43
2019-01-15T05:12:51.302Z,21.00
2019-01-15T05:15:21.514Z,20.80
2019-01-15T05:17:51.657Z,19.50
2019-01-15T05:20:21.832Z,20.37
2019-01-15T05:22:52.020Z,22.13
2019-01-15T05:25:22.305Z,19.23
2019-01-15T05:27:52.571Z,20.57
2019-01-15T05:30:24.895Z,18.83
2019-01-15T05:32:55.080Z,21.43
2019-01-15T05:35:25.583Z,19.20
2019-01-15T05:37:55.751Z,20.03
2019-01-15T05:40:25.993Z,18.93
2019-01-15T05:42:56.120Z,19.43
2019-01-15T05:45:32.347Z,19.83
2019-01-15T05:48:06.868Z,19.00
2019-01-15T05:50:42.115Z,17.80
2019-01-15T05:53:12.503Z,18.17
2019-01-15T05:55:42.671Z,17.63
2019-01-15T05:58:12.819Z,18.57
2019-01-15T06:00:43.016Z,17.13
2019-01-15T06:03:13.189Z,15.87
2019-01-15T06:05:43.352Z,15.27
2019-01-15T06:08:13.681Z,14.33
2019-01-15T06:10:44.919Z,16.07
2019-01-15T06:13:15.438Z,16.13
2019-01-15T06:15:45.771Z,14.70
2019-01-15T06:18:18.308Z,14.23
2019-01-15T06:20:48.477Z,14.77
2019-01-15T06:23:18.648Z,14.23
2019-01-15T06:25:48.820Z,14.93
2019-01-15T06:28:19.019Z,12.93
2019-01-15T06:30:49.512Z,14.23
2019-01-15T06:33:19.672Z,15.23
2019-01-15T06:35:50.056Z,14.47
2019-01-15T06:38:20.221Z,15.17
2019-01-15T06:40:50.457Z,15.93
2019-01-15T06:43:20.634Z,15.60
2019-01-15T06:45:50.812Z,16.03
2019-01-15T06:48:20.977Z,15.27
2019-01-15T06:50:51.214Z,14.17
2019-01-15T06:53:21.374Z,13.83
2019-01-15T06:55:51.528Z,15.60
2019-01-15T06:58:21.708Z,17.00
2019-01-15T07:00:51.866Z,16.00
2019-01-15T07:03:22.081Z,14.60
2019-01-15T07:05:52.235Z,16.37
2019-01-15T07:08:22.395Z,14.40
2019-01-15T07:10:52.583Z,17.40
2019-01-15T07:13:22.742Z,19.10
2019-01-15T07:15:54.108Z,17.10
2019-01-15T07:18:24.371Z,17.83
2019-01-15T07:20:54.538Z,19.20
2019-01-15T07:23:24.710Z,19.77
2019-01-15T07:25:54.884Z,18.40
2019-01-15T07:28:30.323Z,20.03
2019-01-15T07:31:01.177Z,20.17
2019-01-15T07:33:31.879Z,20.57
2019-01-15T07:36:02.055Z,20.70
2019-01-15T07:38:32.211Z,20.07
2019-01-15T07:41:02.409Z,20.90
2019-01-15T07:43:32.569Z,22.20
2019-01-15T07:46:03.066Z,19.90
2019-01-15T07:48:33.233Z,23.10
2019-01-15T07:51:03.387Z,21.37
2019-01-15T07:53:33.564Z,20.50
2019-01-15T07:56:03.756Z,21.83
2019-01-15T07:58:33.914Z,22.27
2019-01-15T08:01:05.407Z,21.93
2019-01-15T08:03:39.573Z,21.27
2019-01-15T08:06:09.752Z,21.90
2019-01-15T08:08:39.912Z,20.20
2019-01-15T08:11:10.087Z,20.70
2019-01-15T08:13:40.244Z,22.33
2019-01-15T08:16:10.455Z,21.33
2019-01-15T08:18:40.641Z,19.57
2019-01-15T08:21:10.883Z,20.43
2019-01-15T08:23:41.068Z,21.07
2019-01-15T08:26:11.251Z,21.10
2019-01-15T08:28:41.427Z,17.37
2019-01-15T08:31:11.619Z,17.70
2019-01-15T08:33:41.764Z,19.90
2019-01-15T08:36:11.993Z,21.30
2019-01-15T08:38:42.135Z,19.00
2019-01-15T08:41:12.311Z,17.57
2019-01-15T08:43:42.500Z,19.00
2019-01-15T08:46:12.672Z,19.27
2019-01-15T08:48:43.344Z,17.40
2019-01-15T08:51:13.991Z,18.20
2019-01-15T08:53:44.965Z,16.43
2019-01-15T08:56:15.407Z,17.27
2019-01-15T08:58:45.581Z,17.13
2019-01-15T09:01:15.746Z,16.20
2019-01-15T09:03:45.918Z,18.60
2019-01-15T09:06:16.084Z,16.53
2019-01-15T09:08:46.262Z,16.10
2019-01-15T09:11:16.464Z,17.70
2019-01-15T09:13:46.779Z,17.50
2019-01-15T09:16:16.935Z,16.20
2019-01-15T09:18:47.115Z,16.30
2019-01-15T09:21:17.351Z,17.77
2019-01-15T09:23:47.515Z,16.70
2019-01-15T09:26:17.669Z,16.10
2019-01-15T09:28:48.959Z,16.33
2019-01-15T09:31:19.125Z,14.90
2019-01-15T09:33:49.302Z,15.43
2019-01-15T09:36:19.479Z,15.17
2019-01-15T09:38:49.673Z,14.60
2019-01-15T09:41:19.820Z,14.00
2019-01-15T09:43:49.986Z,14.43
2019-01-15T09:46:20.151Z,14.17
2019-01-15T09:48:50.418Z,15.17
2019-01-15T09:51:20.579Z,17.27
2019-01-15T09:53:53.375Z,13.97
2019-01-15T09:56:23.558Z,14.20
2019-01-15T09:58:53.733Z,13.90
2019-01-15T10:01:23.922Z,14.40
2019-01-15T10:03:54.064Z,15.33
2019-01-15T10:06:24.232Z,12.20
2019-01-15T10:08:54.372Z,12.47
2019-01-15T10:11:24.544Z,11.30
2019-01-15T10:13:54.713Z,11.30
2019-01-15T10:16:24.883Z,11.43
2019-01-15T10:18:55.040Z,13.13
2019-01-15T10:21:25.191Z,11.40
2019-01-15T10:23:55.375Z,11.20
2019-01-15T10:26:25.545Z,9.43
2019-01-15T10:28:55.748Z,9.93
2019-01-15T10:32:10.031Z,8.60
2019-01-15T10:34:41.022Z,9.80
2019-01-15T10:37:11.186Z,9.93
2019-01-15T10:39:41.381Z,10.50
2019-01-15T10:42:11.559Z,10.23
2019-01-15T10:44:48.462Z,9.27
2019-01-15T10:47:13.718Z,9.80
2019-01-15T10:49:44.944Z,8.70
2019-01-15T10:52:15.083Z,8.60
2019-01-15T10:54:45.257Z,8.87
2019-01-15T10:57:15.403Z,8.43
2019-01-15T10:59:45.564Z,8.57
2019-01-15T11:02:15.738Z,8.17
2019-01-15T11:04:45.887Z,7.20
2019-01-15T11:07:16.039Z,8.20
2019-01-15T11:09:46.216Z,8.00
2019-01-15T11:12:18.223Z,6.70
2019-01-15T11:14:55.831Z,7.37
2019-01-15T11:17:20.744Z,6.70
2019-01-15T11:19:50.919Z,6.23
2019-01-15T11:22:21.084Z,5.60
2019-01-15T11:24:51.255Z,5.47
2019-01-15T11:27:21.483Z,5.37
2019-01-15T11:29:51.652Z,6.20
2019-01-15T11:32:21.799Z,5.30
2019-01-15T11:34:52.039Z,5.93
2019-01-15T11:37:22.224Z,6.10
2019-01-15T11:39:52.399Z,4.60
2019-01-15T11:42:23.659Z,4.47
2019-01-15T11:45:03.394Z,4.80
2019-01-15T11:47:31.019Z,4.27
2019-01-15T11:50:01.201Z,5.30
2019-01-15T11:52:32.422Z,4.30
2019-01-15T11:55:02.593Z,4.60
2019-01-15T11:57:32.740Z,4.90
2019-01-15T12:00:03.141Z,6.00
2019-01-15T12:02:48.242Z,4.47
2019-01-15T12:05:36.004Z,4.40
2019-01-15T12:08:29.303Z,3.97
2019-01-15T12:11:17.316Z,3.57
2019-01-15T12:14:12.471Z,4.70
2019-01-15T12:17:10.719Z,4.00
2019-01-15T12:20:00.235Z,4.70
2019-01-15T12:22:48.091Z,4.70
2019-01-15T12:25:30.545Z,4.00
2019-01-15T12:28:19.652Z,4.93
2019-01-15T12:31:07.551Z,3.97
2019-01-15T12:34:01.133Z,4.37
2019-01-15T12:36:54.375Z,3.80
2019-01-15T12:39:43.507Z,3.53
2019-01-15T12:42:31.239Z,3.20
2019-01-15T12:45:32.348Z,3.37
2019-01-15T12:48:20.069Z,3.37
2019-01-15T12:51:09.188Z,4.53
2019-01-15T12:54:04.083Z,4.27
2019-01-15T12:56:51.883Z,4.43
2019-01-15T12:59:39.564Z,3.57
2019-01-15T13:02:28.015Z,4.30
2019-01-15T13:05:13.088Z,3.40
2019-01-15T13:08:08.042Z,3.20
2019-01-15T13:10:56.041Z,3.60
2019-01-15T13:13:44.967Z,3.23
2019-01-15T13:16:40.860Z,3.07
2019-01-15T13:19:39.039Z,3.57
2019-01-15T13:22:25.980Z,3.23
2019-01-15T13:25:30.187Z,3.83
2019-01-15T13:28:34.487Z,3.13
2019-01-15T13:31:24.131Z,3.47
2019-01-15T13:34:08.564Z,3.00
2019-01-15T13:36:47.122Z,3.80
2019-01-15T13:39:27.843Z,3.97
2019-01-15T13:42:29.243Z,3.60
2019-01-15T13:45:28.415Z,3.53
2019-01-15T13:48:26.570Z,3.17
2019-01-15T13:51:18.474Z,3.10
2019-01-15T13:54:07.571Z,4.07
2019-01-15T13:56:47.407Z,3.37
2019-01-15T13:59:27.983Z,3.43
2019-01-15T14:02:29.467Z,3.93
2019-01-15T14:05:22.899Z,3.50
2019-01-15T14:08:10.791Z,3.10
2019-01-15T14:11:00.713Z,3.30
2019-01-15T14:13:52.864Z,3.47
2019-01-15T14:16:46.232Z,3.53
2019-01-15T14:19:35.340Z,3.70
2019-01-15T14:22:23.386Z,3.73
2019-01-15T14:25:27.968Z,4.57
2019-01-15T14:28:07.392Z,4.33
2019-01-15T14:31:02.566Z,4.17
2019-01-15T14:34:10.088Z,4.63
2019-01-15T14:36:58.019Z,3.87
2019-01-15T14:39:50.135Z,3.73
2019-01-15T14:42:42.093Z,4.07
2019-01-15T14:45:30.317Z,4.13
2019-01-15T14:48:25.211Z,3.93
2019-01-15T14:51:14.338Z,3.70
2019-01-15T14:54:03.041Z,4.03
2019-01-15T14:56:52.220Z,4.27
2019-01-15T14:59:52.270Z,4.20
2019-01-15T15:02:59.937Z,4.57
2019-01-15T15:05:51.835Z,4.63
2019-01-15T15:08:39.633Z,3.80
2019-01-15T15:11:32.020Z,4.30
2019-01-15T15:14:20.383Z,4.00
2019-01-15T15:17:12.567Z,4.63
2019-01-15T15:20:19.907Z,4.20
2019-01-15T15:23:07.616Z,3.73
2019-01-15T15:25:48.143Z,3.53
2019-01-15T15:28:26.183Z,3.90
2019-01-15T15:31:18.359Z,4.50
2019-01-15T15:34:13.295Z,3.80
2019-01-15T15:37:11.082Z,5.40
2019-01-15T15:40:01.914Z,3.70
2019-01-15T15:43:06.159Z,3.37
2019-01-15T15:45:58.211Z,3.77
2019-01-15T15:48:47.314Z,3.60
2019-01-15T15:51:36.427Z,3.40
2019-01-15T15:54:24.603Z,3.40
2019-01-15T15:57:13.880Z,4.03
2019-01-15T16:00:18.447Z,4.17
2019-01-15T16:03:13.563Z,4.17
2019-01-15T16:06:11.853Z,4.40
2019-01-15T16:08:57.580Z,5.00
2019-01-15T16:11:41.715Z,4.73
2019-01-15T16:14:20.891Z,5.07
2019-01-15T16:17:01.882Z,4.30
2019-01-15T16:19:49.607Z,4.17
2019-01-15T16:22:41.771Z,4.33
2019-01-15T16:25:31.740Z,4.93
2019-01-15T16:28:17.913Z,5.10
2019-01-15T16:31:13.227Z,5.17
2019-01-15T16:34:05.173Z,5.43
2019-01-15T16:36:56.623Z,5.97
2019-01-15T16:39:45.751Z,5.93
2019-01-15T16:42:40.916Z,5.97
2019-01-15T16:45:34.184Z,5.80
2019-01-15T16:48:22.048Z,6.60
2019-01-15T16:51:14.321Z,8.07
2019-01-15T16:54:09.253Z,8.80
2019-01-15T16:57:16.571Z,10.63
2019-01-15T17:00:08.723Z,12.37
2019-01-15T17:02:53.444Z,11.33
2019-01-15T17:05:51.603Z,6.30
2019-01-15T17:08:46.539Z,13.93
2019-01-15T17:11:29.515Z,7.50
2019-01-15T17:14:27.656Z,10.33
2019-01-15T17:17:22.626Z,7.70
2019-01-15T17:20:27.114Z,6.80
2019-01-15T17:23:07.716Z,6.50
2019-01-15T17:26:09.225Z,6.37
2019-01-15T17:28:57.369Z,6.90
2019-01-15T17:31:55.691Z,12.07
2019-01-15T17:34:54.646Z,12.07
2019-01-15T17:37:54.483Z,4.90
2019-01-15T17:40:37.917Z,6.13
2019-01-15T17:43:26.249Z,7.73
2019-01-15T17:46:15.204Z,6.00
2019-01-15T17:49:03.247Z,5.40
2019-01-15T17:51:51.074Z,6.20
2019-01-15T17:54:49.176Z,7.00
2019-01-15T17:57:41.350Z,5.80
2019-01-15T18:00:27.027Z,6.07
2019-01-15T18:03:22.144Z,5.57
2019-01-15T18:06:11.238Z,5.30
2019-01-15T18:08:59.374Z,7.30
2019-01-15T18:11:48.720Z,5.80
2019-01-15T18:14:40.792Z,7.27
2019-01-15T18:17:38.947Z,7.00
2019-01-15T18:20:27.283Z,6.67
2019-01-15T18:23:27.946Z,7.33
2019-01-15T18:26:15.829Z,8.20
2019-01-15T18:29:10.736Z,7.33
2019-01-15T18:32:07.204Z,8.40
2019-01-15T18:34:44.528Z,8.17
2019-01-15T18:37:33.694Z,7.03
2019-01-15T18:40:22.922Z,6.93
2019-01-15T18:43:18.174Z,6.73
2019-01-15T18:46:13.501Z,7.00
2019-01-15T18:49:02.612Z,5.80
2019-01-15T18:52:00.979Z,6.67
2019-01-15T18:54:56.250Z,7.53
2019-01-15T18:57:41.074Z,6.90
2019-01-15T19:00:35.551Z,7.33
2019-01-15T19:03:23.560Z,7.07
2019-01-15T19:06:24.819Z,7.23
2019-01-15T19:09:12.715Z,6.80
2019-01-15T19:12:07.688Z,6.70
2019-01-15T19:15:05.866Z,6.60
2019-01-15T19:17:47.550Z,5.40
2019-01-15T19:20:30.699Z,5.93
2019-01-15T19:23:30.114Z,6.70
2019-01-15T19:26:09.302Z,6.03
2019-01-15T19:28:57.365Z,5.83
2019-01-15T19:31:46.516Z,6.40
2019-01-15T19:34:34.417Z,5.37
2019-01-15T19:37:26.320Z,5.70
2019-01-15T19:40:10.855Z,5.77
2019-01-15T19:42:58.997Z,5.90
2019-01-15T19:45:52.211Z,5.10
2019-01-15T19:48:47.384Z,5.10
2019-01-15T19:51:36.515Z,5.30
2019-01-15T19:54:19.331Z,5.67
2019-01-15T19:57:01.016Z,5.73
2019-01-15T19:59:48.751Z,5.93
2019-01-15T20:02:40.088Z,6.30
2019-01-15T20:05:35.369Z,5.80
2019-01-15T20:08:27.529Z,6.87
2019-01-15T20:11:15.387Z,6.20
2019-01-15T20:14:16.990Z,6.40
2019-01-15T20:17:06.104Z,5.70
2019-01-15T20:19:58.203Z,6.80
2019-01-15T20:22:47.257Z,7.57
2019-01-15T20:25:29.020Z,6.40
2019-01-15T20:28:18.136Z,7.90
2019-01-15T20:31:10.188Z,7.23
2019-01-15T20:34:17.656Z,7.67
2019-01-15T20:37:09.709Z,6.40
2019-01-15T20:40:07.851Z,6.70
2019-01-15T20:43:02.905Z,7.40
2019-01-15T20:45:47.171Z,8.10
2019-01-15T20:48:36.439Z,7.03
2019-01-15T20:51:24.705Z,7.33
2019-01-15T20:54:12.681Z,8.50
2019-01-15T20:57:02.383Z,7.77
2019-01-15T20:59:42.900Z,7.67
2019-01-15T21:02:32.012Z,7.87
2019-01-15T21:05:19.676Z,7.70
2019-01-15T21:08:04.721Z,8.27
2019-01-15T21:10:52.448Z,8.73
2019-01-15T21:13:56.684Z,10.80
2019-01-15T21:16:48.832Z,10.33
2019-01-15T21:19:40.804Z,8.40
2019-01-15T21:22:36.792Z,8.40
2019-01-15T21:25:35.297Z,7.90
2019-01-15T21:28:23.472Z,10.13
2019-01-15T21:31:17.068Z,8.30
2019-01-15T21:34:15.536Z,16.43
2019-01-15T21:37:13.314Z,10.07
2019-01-15T21:39:55.547Z,9.70
2019-01-15T21:42:41.133Z,11.40
2019-01-15T21:45:39.331Z,10.83
2019-01-15T21:48:27.986Z,8.00
2019-01-15T21:51:18.273Z,9.63
2019-01-15T21:54:10.128Z,9.37
2019-01-15T21:57:02.013Z,9.60
2019-01-15T22:00:03.450Z,9.00
2019-01-15T22:02:56.088Z,9.47
2019-01-15T22:05:44.068Z,9.20
2019-01-15T22:08:32.148Z,9.03
2019-01-15T22:11:19.927Z,8.70
2019-01-15T22:14:07.798Z,11.00
2019-01-15T22:16:56.883Z,11.10
2019-01-15T22:19:54.895Z,11.10
2019-01-15T22:22:51.397Z,10.90
2019-01-15T22:25:52.981Z,10.60
2019-01-15T22:28:40.934Z,13.03
2019-01-15T22:31:30.038Z,11.23
2019-01-15T22:34:31.308Z,12.37
2019-01-15T22:37:11.780Z,11.33
2019-01-15T22:39:54.987Z,11.73
2019-01-15T22:42:44.199Z,12.33
2019-01-15T22:45:33.491Z,12.93
2019-01-15T22:48:22.632Z,11.30
2019-01-15T22:51:10.543Z,11.17
2019-01-15T22:53:59.898Z,11.93
2019-01-15T22:56:44.311Z,10.97
2019-01-15T22:59:42.836Z,11.43
2019-01-15T23:02:30.713Z,10.83
2019-01-15T23:05:25.679Z,16.40
2019-01-15T23:08:14.787Z,12.13
2019-01-15T23:11:03.976Z,11.57
2019-01-15T23:14:05.195Z,12.90
2019-01-15T23:16:54.316Z,13.23
2019-01-15T23:19:42.087Z,12.07
2019-01-15T23:22:38.336Z,13.33
2019-01-15T23:25:31.095Z,12.50
2019-01-15T23:28:32.578Z,12.57
2019-01-15T23:31:37.829Z,14.70
2019-01-15T23:34:39.203Z,11.77
2019-01-15T23:37:20.877Z,10.40
2019-01-15T23:40:12.904Z,9.57
2019-01-15T23:43:14.080Z,10.23
2019-01-15T23:46:03.295Z,10.03
2019-01-15T23:48:58.423Z,9.10
2019-01-15T23:51:41.210Z,10.10
2019-01-15T23:54:27.174Z,9.30
2019-01-15T23:57:19.324Z,11.10
